createdAt,value
2019-02-02T00:00:23.015Z,79.80
2019-02-02T00:02:52.083Z,71.73
2019-02-02T00:05:21.164Z,82.87
2019-02-02T00:07:50.229Z,73.60
2019-02-02T00:10:19.300Z,56.87
2019-02-02T00:12:48.370Z,56.80
2019-02-02T00:15:17.508Z,50.30
2019-02-02T00:17:46.630Z,43.03
2019-02-02T00:20:15.691Z,55.60
2019-02-02T00:22:44.764Z,47.03
2019-02-02T00:25:13.895Z,50.03
2019-02-02T00:27:42.971Z,51.23
2019-02-02T00:30:16.495Z,45.63
2019-02-02T00:32:45.564Z,54.87
2019-02-02T00:35:14.645Z,44.70
2019-02-02T00:37:43.821Z,48.97
2019-02-02T00:40:19.583Z,47.03
2019-02-02T00:42:48.658Z,46.47
2019-02-02T00:45:18.628Z,50.10
2019-02-02T00:47:47.707Z,49.60
2019-02-02T00:50:18.360Z,49.53
2019-02-02T00:52:47.456Z,50.67
2019-02-02T00:55:17.296Z,53.83
2019-02-02T00:57:53.606Z,41.33
2019-02-02T01:00:19.645Z,55.23
2019-02-02T01:02:48.820Z,42.37
2019-02-02T01:05:19.061Z,68.20
2019-02-02T01:07:48.311Z,47.63
2019-02-02T01:10:18.912Z,41.87
2019-02-02T01:12:48.063Z,42.90
2019-02-02T01:15:17.585Z,58.83
2019-02-02T01:17:46.655Z,61.33
2019-02-02T01:20:16.000Z,61.83
2019-02-02T01:22:45.347Z,77.50
2019-02-02T01:25:15.079Z,57.43
2019-02-02T01:27:44.232Z,54.10
2019-02-02T01:30:14.964Z,54.23
2019-02-02T01:32:44.043Z,97.57
2019-02-02T01:35:14.589Z,138.23
2019-02-02T01:37:43.668Z,59.20
2019-02-02T01:40:14.275Z,151.47
2019-02-02T01:42:43.388Z,210.37
2019-02-02T01:45:13.987Z,69.37
2019-02-02T01:47:43.071Z,71.70
2019-02-02T01:50:14.313Z,95.63
2019-02-02T01:52:43.395Z,69.53
2019-02-02T01:55:13.722Z,59.90
2019-02-02T01:57:42.968Z,66.53
2019-02-02T02:00:13.716Z,48.27
2019-02-02T02:02:42.886Z,61.77
2019-02-02T02:05:12.014Z,49.13
2019-02-02T02:07:41.563Z,61.97
2019-02-02T02:10:12.505Z,77.17
2019-02-02T02:12:41.592Z,58.57
2019-02-02T02:15:11.830Z,48.73
2019-02-02T02:17:41.383Z,43.13
2019-02-02T02:20:11.616Z,42.77
2019-02-02T02:22:41.553Z,46.00
2019-02-02T02:25:11.921Z,72.87
2019-02-02T02:27:40.998Z,63.90
2019-02-02T02:30:11.605Z,101.30
2019-02-02T02:32:40.682Z,56.77
2019-02-02T02:35:09.920Z,80.47
2019-02-02T02:37:39.075Z,67.50
2019-02-02T02:40:09.715Z,39.77
2019-02-02T02:42:38.799Z,37.97
2019-02-02T02:45:21.665Z,34.87
2019-02-02T02:47:52.534Z,38.93
2019-02-02T02:50:22.236Z,35.37
2019-02-02T02:52:51.361Z,37.07
2019-02-02T02:55:20.441Z,38.20
2019-02-02T02:57:49.538Z,41.73
2019-02-02T03:00:25.595Z,34.17
2019-02-02T03:02:54.768Z,34.80
2019-02-02T03:05:23.890Z,36.90
2019-02-02T03:07:53.635Z,40.43
2019-02-02T03:10:23.778Z,37.97
2019-02-02T03:12:53.132Z,52.60
2019-02-02T03:15:22.359Z,58.77
2019-02-02T03:17:51.502Z,46.33
2019-02-02T03:20:22.108Z,59.07
2019-02-02T03:22:51.225Z,52.93
2019-02-02T03:25:24.199Z,88.93
2019-02-02T03:27:53.273Z,96.63
2019-02-02T03:30:22.521Z,85.60
2019-02-02T03:32:51.721Z,78.47
2019-02-02T03:35:22.014Z,82.20
2019-02-02T03:37:51.568Z,66.63
2019-02-02T03:40:21.742Z,77.83
2019-02-02T03:42:50.859Z,67.60
2019-02-02T03:45:20.900Z,64.47
2019-02-02T03:47:50.451Z,55.07
2019-02-02T03:50:19.594Z,57.80
2019-02-02T03:52:48.676Z,53.03
2019-02-02T03:55:17.908Z,44.27
2019-02-02T03:57:47.252Z,55.27
2019-02-02T04:00:20.426Z,47.83
2019-02-02T04:02:49.775Z,43.30
2019-02-02T04:05:20.011Z,55.53
2019-02-02T04:07:49.091Z,49.43
2019-02-02T04:10:18.325Z,48.10
2019-02-02T04:12:47.415Z,54.87
2019-02-02T04:15:17.942Z,54.87
2019-02-02T04:17:47.292Z,57.97
2019-02-02T04:20:17.448Z,59.03
2019-02-02T04:22:46.532Z,58.27
2019-02-02T04:25:15.977Z,84.13
2019-02-02T04:27:45.055Z,75.17
2019-02-02T04:30:21.432Z,66.23
2019-02-02T04:32:50.773Z,65.77
2019-02-02T04:35:19.906Z,67.37
2019-02-02T04:37:48.988Z,51.73
2019-02-02T04:40:18.051Z,52.53
2019-02-02T04:42:47.123Z,43.43
2019-02-02T04:45:16.567Z,42.60
2019-02-02T04:47:45.646Z,46.80
2019-02-02T04:50:16.255Z,44.47
2019-02-02T04:52:45.604Z,44.37
2019-02-02T04:55:15.451Z,41.57
2019-02-02T04:57:44.524Z,38.77
2019-02-02T05:00:17.834Z,41.97
2019-02-02T05:02:46.924Z,39.63
2019-02-02T05:05:16.560Z,32.03
2019-02-02T05:07:45.638Z,37.43
2019-02-02T05:10:21.698Z,45.20
2019-02-02T05:12:51.146Z,36.77
2019-02-02T05:15:20.880Z,41.47
2019-02-02T05:17:50.232Z,35.17
2019-02-02T05:20:19.768Z,38.70
2019-02-02T05:22:48.914Z,36.03
2019-02-02T05:25:18.160Z,39.00
2019-02-02T05:27:47.326Z,36.07
2019-02-02T05:30:20.762Z,33.10
2019-02-02T05:32:49.834Z,34.10
2019-02-02T05:35:18.890Z,33.30
2019-02-02T05:37:48.060Z,38.77
2019-02-02T05:40:18.207Z,28.60
2019-02-02T05:42:47.341Z,33.50
2019-02-02T05:45:17.957Z,31.90
2019-02-02T05:47:47.184Z,30.17
2019-02-02T05:50:17.234Z,33.77
2019-02-02T05:52:46.318Z,35.87
2019-02-02T05:55:16.273Z,32.17
2019-02-02T05:57:45.363Z,41.47
2019-02-02T06:00:20.668Z,47.47
2019-02-02T06:02:49.812Z,37.50
2019-02-02T06:05:19.191Z,41.60
2019-02-02T06:07:48.254Z,44.37
2019-02-02T06:10:18.095Z,33.57
2019-02-02T06:12:47.158Z,35.77
2019-02-02T06:15:16.308Z,35.53
2019-02-02T06:17:45.554Z,31.03
2019-02-02T06:20:15.595Z,40.17
2019-02-02T06:22:44.654Z,38.70
2019-02-02T06:25:14.426Z,32.53
2019-02-02T06:27:43.728Z,42.00
2019-02-02T06:30:14.675Z,38.93
2019-02-02T06:32:43.740Z,34.33
2019-02-02T06:35:13.188Z,34.03
2019-02-02T06:37:42.262Z,35.00
2019-02-02T06:40:12.515Z,38.33
2019-02-02T06:42:41.585Z,36.77
2019-02-02T06:45:12.198Z,44.67
2019-02-02T06:47:41.267Z,36.83
2019-02-02T06:50:14.270Z,42.40
2019-02-02T06:52:43.415Z,45.27
2019-02-02T06:55:13.769Z,44.27
2019-02-02T06:57:42.852Z,46.97
2019-02-02T07:00:16.289Z,44.30
2019-02-02T07:02:44.299Z,43.10
2019-02-02T07:05:13.467Z,46.63
2019-02-02T07:07:42.615Z,49.97
2019-02-02T07:10:13.371Z,59.00
2019-02-02T07:12:42.434Z,53.03
2019-02-02T07:15:12.989Z,60.03
2019-02-02T07:17:42.127Z,57.30
2019-02-02T07:20:12.162Z,53.03
2019-02-02T07:22:41.248Z,61.97
2019-02-02T07:25:10.808Z,74.10
2019-02-02T07:27:39.894Z,70.43
2019-02-02T07:30:10.501Z,89.07
2019-02-02T07:32:39.581Z,129.00
2019-02-02T07:35:09.638Z,118.77
2019-02-02T07:37:38.710Z,172.57
2019-02-02T07:40:09.279Z,144.83
2019-02-02T07:42:38.343Z,121.43
2019-02-02T07:45:11.896Z,177.37
2019-02-02T07:47:41.097Z,145.93
2019-02-02T07:50:11.700Z,241.27
2019-02-02T07:52:40.792Z,107.80
2019-02-02T07:55:11.150Z,59.50
2019-02-02T07:57:40.220Z,107.20
2019-02-02T08:00:15.880Z,79.67
2019-02-02T08:02:44.364Z,94.67
2019-02-02T08:05:13.519Z,110.80
2019-02-02T08:07:42.587Z,91.40
2019-02-02T08:10:12.505Z,145.17
2019-02-02T08:12:41.575Z,92.60
2019-02-02T08:15:12.244Z,78.80
2019-02-02T08:17:41.368Z,50.83
2019-02-02T08:20:11.929Z,139.37
2019-02-02T08:22:41.482Z,109.13
2019-02-02T08:25:12.314Z,60.70
2019-02-02T08:27:41.380Z,95.77
2019-02-02T08:30:12.157Z,54.73
2019-02-02T08:32:41.222Z,93.40
2019-02-02T08:35:10.369Z,237.67
2019-02-02T08:37:39.608Z,37.80
2019-02-02T08:40:10.152Z,33.10
2019-02-02T08:42:39.236Z,58.13
2019-02-02T08:45:09.070Z,36.63
2019-02-02T08:47:38.168Z,36.77
2019-02-02T08:50:08.780Z,36.07
2019-02-02T08:52:37.859Z,30.80
2019-02-02T08:55:07.097Z,27.27
2019-02-02T08:57:36.208Z,26.30
2019-02-02T09:00:06.864Z,22.37
2019-02-02T09:02:36.053Z,20.80
2019-02-02T09:05:06.546Z,15.43
2019-02-02T09:07:38.283Z,17.53
2019-02-02T09:10:08.007Z,16.53
2019-02-02T09:12:37.084Z,17.43
2019-02-02T09:15:08.019Z,14.93
2019-02-02T09:17:37.661Z,17.37
2019-02-02T09:20:08.207Z,15.73
2019-02-02T09:22:37.347Z,18.47
2019-02-02T09:25:08.304Z,18.90
2019-02-02T09:27:37.378Z,18.63
2019-02-02T09:30:10.905Z,19.43
2019-02-02T09:32:40.006Z,19.20
2019-02-02T09:35:09.133Z,17.40
2019-02-02T09:37:38.206Z,19.00
2019-02-02T09:40:08.832Z,16.90
2019-02-02T09:42:37.906Z,17.70
2019-02-02T09:45:08.872Z,18.40
2019-02-02T09:47:37.941Z,15.47
2019-02-02T09:50:08.835Z,16.73
2019-02-02T09:52:37.980Z,17.10
2019-02-02T09:55:17.313Z,15.17
2019-02-02T09:57:46.565Z,14.90
2019-02-02T10:00:17.184Z,14.20
2019-02-02T10:02:46.354Z,16.83
2019-02-02T10:05:18.961Z,15.60
2019-02-02T10:07:47.113Z,16.83
2019-02-02T10:10:17.473Z,16.70
2019-02-02T10:12:46.595Z,17.10
2019-02-02T10:15:16.333Z,14.87
2019-02-02T10:17:45.404Z,14.97
2019-02-02T10:20:21.826Z,15.47
2019-02-02T10:22:52.701Z,14.97
2019-02-02T10:25:22.902Z,18.30
2019-02-02T10:27:51.977Z,17.50
2019-02-02T10:30:25.227Z,14.47
2019-02-02T10:32:54.383Z,14.50
2019-02-02T10:35:23.447Z,12.83
2019-02-02T10:37:52.532Z,17.27
2019-02-02T10:40:21.590Z,17.70
2019-02-02T10:42:50.662Z,16.13
2019-02-02T10:45:19.995Z,13.60
2019-02-02T10:47:49.779Z,16.10
2019-02-02T10:50:20.217Z,15.97
2019-02-02T10:52:49.481Z,17.23
2019-02-02T10:55:18.720Z,16.63
2019-02-02T10:57:47.796Z,15.20
2019-02-02T11:00:35.996Z,17.97
2019-02-02T11:03:05.337Z,18.87
2019-02-02T11:05:35.869Z,19.73
2019-02-02T11:08:05.506Z,17.43
2019-02-02T11:10:35.355Z,19.80
2019-02-02T11:13:05.218Z,20.63
2019-02-02T11:15:34.415Z,16.47
2019-02-02T11:18:04.171Z,20.40
2019-02-02T11:20:34.483Z,15.27
2019-02-02T11:23:04.001Z,18.83
2019-02-02T11:25:33.358Z,18.43
2019-02-02T11:28:02.566Z,17.60
2019-02-02T11:30:31.960Z,17.40
2019-02-02T11:33:01.048Z,17.33
2019-02-02T11:35:30.215Z,17.10
2019-02-02T11:37:59.280Z,16.93
2019-02-02T11:40:29.529Z,17.07
2019-02-02T11:42:58.890Z,17.07
2019-02-02T11:45:28.228Z,19.13
2019-02-02T11:47:57.334Z,17.97
2019-02-02T11:50:26.590Z,16.47
2019-02-02T11:52:55.733Z,15.30
2019-02-02T11:55:25.576Z,16.07
2019-02-02T11:57:54.657Z,15.27
2019-02-02T12:00:37.284Z,17.87
2019-02-02T12:03:06.350Z,17.73
2019-02-02T12:05:35.595Z,18.10
2019-02-02T12:08:05.143Z,16.03
2019-02-02T12:10:34.682Z,17.67
2019-02-02T12:13:04.018Z,17.90
2019-02-02T12:15:33.095Z,14.73
2019-02-02T12:18:02.162Z,16.40
2019-02-02T12:20:33.288Z,17.93
2019-02-02T12:23:02.082Z,17.83
2019-02-02T12:25:31.162Z,15.03
2019-02-02T12:28:00.396Z,16.57
2019-02-02T12:30:31.022Z,13.03
2019-02-02T12:33:03.006Z,16.87
2019-02-02T12:35:30.882Z,15.37
2019-02-02T12:37:59.940Z,14.13
2019-02-02T12:40:29.135Z,15.13
2019-02-02T12:42:58.228Z,13.47
2019-02-02T12:45:28.767Z,14.40
2019-02-02T12:47:58.148Z,14.20
2019-02-02T12:50:27.228Z,12.37
2019-02-02T12:52:56.303Z,14.80
2019-02-02T12:55:26.029Z,14.07
2019-02-02T12:57:55.502Z,12.47
2019-02-02T13:00:24.696Z,12.90
2019-02-02T13:02:53.751Z,15.50
2019-02-02T13:05:23.095Z,14.13
2019-02-02T13:07:52.151Z,14.83
2019-02-02T13:10:24.416Z,13.17
2019-02-02T13:12:53.232Z,14.10
2019-02-02T13:15:22.311Z,12.30
2019-02-02T13:17:51.388Z,14.20
2019-02-02T13:20:20.452Z,14.17
2019-02-02T13:22:49.511Z,14.30
2019-02-02T13:25:19.495Z,17.47
2019-02-02T13:27:48.557Z,17.23
2019-02-02T13:30:19.101Z,21.73
2019-02-02T13:32:49.992Z,21.77
2019-02-02T13:35:19.613Z,21.50
2019-02-02T13:37:48.678Z,19.87
2019-02-02T13:40:18.916Z,20.80
2019-02-02T13:42:48.181Z,20.57
2019-02-02T13:45:18.307Z,21.73
2019-02-02T13:47:47.388Z,22.67
2019-02-02T13:50:17.139Z,22.03
2019-02-02T13:52:46.768Z,22.20
2019-02-02T13:55:15.814Z,21.90
2019-02-02T13:57:44.903Z,22.80
2019-02-02T14:00:15.505Z,19.60
2019-02-02T14:02:44.587Z,23.43
2019-02-02T14:05:14.718Z,22.17
2019-02-02T14:07:43.801Z,20.10
2019-02-02T14:10:14.401Z,23.67
2019-02-02T14:12:43.478Z,23.33
2019-02-02T14:15:13.418Z,28.20
2019-02-02T14:17:42.499Z,22.27
2019-02-02T14:20:13.104Z,23.50
2019-02-02T14:22:42.211Z,20.00
2019-02-02T14:25:12.049Z,17.10
2019-02-02T14:27:41.206Z,17.77
2019-02-02T14:30:14.302Z,19.10
2019-02-02T14:32:43.379Z,18.40
2019-02-02T14:35:13.719Z,15.87
2019-02-02T14:37:42.890Z,16.07
2019-02-02T14:40:13.496Z,17.17
2019-02-02T14:42:42.621Z,15.40
2019-02-02T14:45:12.983Z,13.07
2019-02-02T14:47:42.084Z,12.43
2019-02-02T14:50:12.218Z,14.07
2019-02-02T14:52:41.303Z,13.57
2019-02-02T14:55:12.039Z,13.30
2019-02-02T14:57:41.128Z,15.40
2019-02-02T15:00:29.536Z,13.37
2019-02-02T15:03:00.049Z,13.57
2019-02-02T15:05:42.227Z,14.77
2019-02-02T15:08:01.142Z,14.33
2019-02-02T15:10:30.212Z,14.67
2019-02-02T15:12:59.280Z,14.47
2019-02-02T15:15:28.345Z,13.00
2019-02-02T15:17:57.409Z,12.87
2019-02-02T15:20:33.504Z,15.77
2019-02-02T15:23:02.575Z,15.97
2019-02-02T15:25:31.729Z,15.73
2019-02-02T15:28:00.787Z,14.93
2019-02-02T15:30:31.398Z,16.67
2019-02-02T15:33:00.472Z,16.00
2019-02-02T15:35:29.550Z,15.60
2019-02-02T15:37:58.687Z,18.23
2019-02-02T15:40:27.759Z,14.07
2019-02-02T15:42:56.828Z,17.13
2019-02-02T15:45:29.870Z,16.60
2019-02-02T15:47:58.923Z,16.70
2019-02-02T15:50:28.009Z,16.23
2019-02-02T15:52:57.083Z,18.30
2019-02-02T15:55:26.176Z,16.40
2019-02-02T15:57:55.238Z,18.70
2019-02-02T16:00:31.127Z,19.07
2019-02-02T16:03:00.192Z,16.73
2019-02-02T16:05:29.521Z,15.40
2019-02-02T16:07:59.724Z,14.37
2019-02-02T16:10:32.283Z,16.00
2019-02-02T16:13:01.520Z,19.13
2019-02-02T16:15:33.941Z,15.33
2019-02-02T16:18:01.554Z,20.17
2019-02-02T16:20:32.226Z,19.37
2019-02-02T16:23:01.303Z,21.47
2019-02-02T16:25:30.408Z,19.83
2019-02-02T16:27:59.479Z,28.17
2019-02-02T16:30:29.247Z,30.10
2019-02-02T16:32:58.380Z,19.63
2019-02-02T16:35:27.659Z,18.53
2019-02-02T16:37:57.092Z,16.40
2019-02-02T16:40:27.336Z,20.47
2019-02-02T16:42:56.573Z,20.53
2019-02-02T16:45:26.538Z,22.77
2019-02-02T16:47:55.686Z,20.60
2019-02-02T16:50:25.036Z,21.13
2019-02-02T16:52:54.107Z,24.60
2019-02-02T16:55:23.179Z,22.83
2019-02-02T16:57:52.243Z,24.63
2019-02-02T17:00:28.543Z,25.37
2019-02-02T17:02:57.683Z,26.50
2019-02-02T17:05:26.767Z,25.57
2019-02-02T17:07:55.840Z,25.47
2019-02-02T17:10:25.983Z,26.87
2019-02-02T17:12:55.441Z,25.93
2019-02-02T17:15:24.578Z,25.00
2019-02-02T17:17:53.715Z,24.90
2019-02-02T17:20:27.251Z,30.53
2019-02-02T17:22:56.372Z,25.60
2019-02-02T17:25:25.750Z,25.63
2019-02-02T17:27:54.882Z,26.10
2019-02-02T17:30:27.108Z,27.90
2019-02-02T17:32:57.751Z,31.40
2019-02-02T17:35:26.880Z,29.60
2019-02-02T17:37:55.955Z,27.93
2019-02-02T17:40:26.207Z,36.30
2019-02-02T17:42:55.551Z,45.50
2019-02-02T17:45:24.616Z,52.80
2019-02-02T17:47:53.700Z,53.47
2019-02-02T17:50:24.308Z,46.73
2019-02-02T17:52:53.389Z,45.43
2019-02-02T17:55:22.538Z,48.43
2019-02-02T17:57:51.614Z,50.60
2019-02-02T18:00:35.350Z,51.43
2019-02-02T18:03:05.036Z,50.17
2019-02-02T18:05:34.108Z,49.37
2019-02-02T18:08:03.399Z,37.87
2019-02-02T18:10:32.747Z,36.40
2019-02-02T18:13:01.818Z,34.30
2019-02-02T18:15:30.886Z,44.97
2019-02-02T18:18:02.397Z,43.60
2019-02-02T18:20:30.783Z,38.90
2019-02-02T18:22:59.911Z,37.77
2019-02-02T18:25:28.972Z,37.70
2019-02-02T18:27:58.064Z,40.27
2019-02-02T18:30:27.900Z,35.63
2019-02-02T18:32:56.985Z,30.57
2019-02-02T18:35:26.042Z,38.03
2019-02-02T18:37:55.144Z,35.73
2019-02-02T18:40:24.774Z,35.17
2019-02-02T18:42:53.862Z,37.43
2019-02-02T18:45:26.459Z,44.90
2019-02-02T18:47:55.709Z,36.80
2019-02-02T18:50:24.766Z,34.43
2019-02-02T18:52:54.618Z,34.93
2019-02-02T18:55:25.282Z,33.00
2019-02-02T18:57:54.368Z,30.87
2019-02-02T19:00:23.499Z,33.07
2019-02-02T19:02:52.649Z,29.00
2019-02-02T19:05:21.709Z,28.77
2019-02-02T19:07:50.789Z,28.03
2019-02-02T19:10:24.032Z,28.30
2019-02-02T19:12:53.110Z,29.90
2019-02-02T19:15:22.172Z,30.07
2019-02-02T19:17:52.325Z,30.00
2019-02-02T19:20:25.271Z,26.83
2019-02-02T19:22:57.073Z,32.23
2019-02-02T19:25:25.207Z,31.87
2019-02-02T19:27:54.284Z,27.43
2019-02-02T19:30:32.848Z,26.23
2019-02-02T19:33:01.923Z,29.50
2019-02-02T19:35:31.070Z,27.97
2019-02-02T19:38:00.153Z,27.83
2019-02-02T19:40:29.220Z,32.90
2019-02-02T19:42:58.308Z,34.00
2019-02-02T19:45:28.198Z,40.60
2019-02-02T19:47:57.280Z,34.87
2019-02-02T19:50:27.117Z,37.03
2019-02-02T19:52:56.196Z,32.00
2019-02-02T19:55:25.345Z,38.00
2019-02-02T19:57:54.570Z,31.90
2019-02-02T20:00:30.632Z,30.80
2019-02-02T20:03:00.053Z,33.77
2019-02-02T20:05:29.422Z,28.83
2019-02-02T20:07:58.848Z,30.67
2019-02-02T20:10:28.001Z,31.57
2019-02-02T20:12:57.067Z,28.13
2019-02-02T20:15:26.912Z,31.70
2019-02-02T20:18:08.912Z,28.47
2019-02-02T20:20:28.013Z,28.23
2019-02-02T20:22:57.142Z,55.17
2019-02-02T20:25:26.612Z,30.87
2019-02-02T20:27:55.749Z,32.53
2019-02-02T20:30:26.346Z,28.57
2019-02-02T20:32:55.680Z,31.63
2019-02-02T20:35:24.755Z,30.17
2019-02-02T20:37:53.834Z,30.50
2019-02-02T20:40:23.876Z,31.53
2019-02-02T20:42:53.108Z,32.63
2019-02-02T20:45:23.366Z,31.80
2019-02-02T20:47:52.439Z,33.37
2019-02-02T20:50:21.520Z,28.73
2019-02-02T20:52:50.585Z,32.70
2019-02-02T20:55:27.076Z,31.83
2019-02-02T20:57:56.139Z,26.43
2019-02-02T21:00:26.387Z,24.50
2019-02-02T21:02:55.532Z,25.67
2019-02-02T21:05:24.606Z,31.23
2019-02-02T21:07:53.675Z,24.53
2019-02-02T21:10:24.007Z,28.83
2019-02-02T21:12:53.084Z,22.20
2019-02-02T21:15:22.268Z,22.50
2019-02-02T21:17:51.474Z,27.13
2019-02-02T21:20:21.734Z,23.10
2019-02-02T21:22:51.236Z,24.90
2019-02-02T21:25:20.321Z,25.17
2019-02-02T21:27:49.383Z,27.37
2019-02-02T21:30:25.765Z,25.63
2019-02-02T21:32:54.891Z,22.57
2019-02-02T21:35:24.252Z,23.17
2019-02-02T21:37:53.321Z,27.77
2019-02-02T21:40:26.010Z,26.53
2019-02-02T21:42:55.080Z,27.67
2019-02-02T21:45:24.155Z,29.53
2019-02-02T21:47:53.613Z,26.80
2019-02-02T21:50:23.533Z,27.50
2019-02-02T21:52:53.074Z,24.03
2019-02-02T21:55:25.923Z,25.87
2019-02-02T21:57:54.987Z,27.37
2019-02-02T22:00:25.419Z,24.77
2019-02-02T22:02:54.555Z,24.60
2019-02-02T22:05:24.680Z,26.73
2019-02-02T22:07:53.756Z,23.80
2019-02-02T22:10:22.847Z,26.50
2019-02-02T22:12:53.022Z,24.03
2019-02-02T22:15:25.998Z,26.10
2019-02-02T22:17:55.144Z,24.27
2019-02-02T22:20:24.289Z,25.77
2019-02-02T22:22:53.360Z,24.33
2019-02-02T22:25:23.610Z,27.13
2019-02-02T22:27:52.679Z,29.40
2019-02-02T22:30:22.734Z,29.80
2019-02-02T22:32:51.799Z,28.40
2019-02-02T22:35:20.880Z,33.70
2019-02-02T22:37:49.950Z,30.40
2019-02-02T22:40:20.079Z,32.63
2019-02-02T22:42:51.312Z,27.73
2019-02-02T22:45:20.864Z,31.20
2019-02-02T22:47:50.208Z,33.20
2019-02-02T22:50:20.310Z,30.40
2019-02-02T22:52:49.519Z,34.53
2019-02-02T22:55:19.558Z,34.67
2019-02-02T22:57:48.722Z,32.50
2019-02-02T23:00:30.226Z,31.80
2019-02-02T23:03:00.068Z,35.90
2019-02-02T23:05:33.350Z,31.33
2019-02-02T23:08:03.956Z,35.73
2019-02-02T23:10:34.582Z,35.03
2019-02-02T23:13:05.195Z,32.30
2019-02-02T23:15:38.779Z,33.93
2019-02-02T23:18:07.919Z,35.20
2019-02-02T23:20:37.006Z,34.07
2019-02-02T23:23:06.078Z,32.67
2019-02-02T23:25:35.207Z,34.77
2019-02-02T23:28:04.392Z,33.30
2019-02-02T23:30:33.459Z,30.43
2019-02-02T23:33:02.542Z,31.87
2019-02-02T23:35:31.603Z,32.43
2019-02-02T23:38:00.687Z,32.27
2019-02-02T23:40:30.224Z,37.70
2019-02-02T23:42:59.306Z,34.77
2019-02-02T23:45:28.373Z,31.37
2019-02-02T23:47:57.460Z,33.27
2019-02-02T23:50:26.588Z,29.87
2019-02-02T23:52:55.672Z,30.53
2019-02-02T23:55:24.740Z,27.40
2019-02-02T23:57:53.843Z,29.07
